Time;durP1;ratioP1;P1;durP2;ratioP2;P2;SDS_P1;SDS_P2;PMS_P1;PMS_P2;Temp;Humidity;BMP_temperature;BMP_pressure;BME280_temperature;BME280_humidity;BME280_pressure;Samples;Min_cycle;Max_cycle;Signal;HPM_P1;HPM_P2
2024/01/19 00:01:23;;;;;;;13.20;9.20;;;;;;;20.06;33.49;99415.38;103422;1282;62287;-80
2024/01/19 00:03:49;;;;;;;13.90;9.60;;;;;;;20.05;33.49;99411.20;103514;1282;76088;-79
2024/01/19 00:06:15;;;;;;;13.00;9.00;;;;;;;20.04;33.57;99404.64;103381;1288;62289;-78
2024/01/19 00:08:41;;;;;;;13.40;9.40;;;;;;;20.03;33.54;99407.30;103474;1282;62244;-78
2024/01/19 00:11:14;;;;;;;14.00;9.30;;;;;;;20.02;33.69;99403.09;103439;1282;62227;-77
2024/01/19 00:13:41;;;;;;;12.50;9.20;;;;;;;20.01;33.62;99397.80;103139;1282;75193;-79
2024/01/19 00:16:07;;;;;;;13.40;8.80;;;;;;;20.00;33.59;99400.24;103435;1282;62175;-79
2024/01/19 00:18:32;;;;;;;12.00;9.10;;;;;;;19.99;33.51;99402.30;103303;1283;62220;-79
2024/01/19 00:20:59;;;;;;;13.70;9.20;;;;;;;19.98;33.55;99406.63;103467;1283;72160;-79
2024/01/19 00:23:24;;;;;;;12.60;8.90;;;;;;;19.97;33.64;99404.77;103474;1288;62279;-79
2024/01/19 00:25:50;;;;;;;12.60;9.40;;;;;;;19.97;33.60;99401.41;103366;1282;63436;-79
2024/01/19 00:28:16;;;;;;;11.70;8.40;;;;;;;19.96;33.66;99406.63;103523;1288;62188;-78
2024/01/19 00:30:41;;;;;;;14.10;9.00;;;;;;;19.95;33.69;99409.42;103644;1282;62198;-79
2024/01/19 00:33:07;;;;;;;12.10;9.10;;;;;;;19.95;33.58;99416.23;103380;1282;63358;-79
2024/01/19 00:35:33;;;;;;;12.60;9.60;;;;;;;19.94;33.65;99418.84;103477;1286;62136;-80
2024/01/19 00:37:59;;;;;;;14.90;9.20;;;;;;;19.93;33.58;99419.94;103438;1283;62271;-80
2024/01/19 00:40:25;;;;;;;12.10;9.10;;;;;;;19.92;33.59;99416.05;103652;1283;62268;-79
2024/01/19 00:42:50;;;;;;;12.40;8.60;;;;;;;19.92;33.74;99413.97;103441;1282;62630;-79
2024/01/19 00:45:16;;;;;;;12.40;9.00;;;;;;;19.91;33.65;99408.49;103485;1283;63318;-79
2024/01/19 00:47:42;;;;;;;11.60;8.80;;;;;;;19.90;33.60;99404.97;103436;1282;75106;-79
2024/01/19 00:50:08;;;;;;;14.60;9.20;;;;;;;19.90;33.59;99401.27;103433;1288;62271;-79
2024/01/19 00:52:34;;;;;;;13.20;9.20;;;;;;;19.89;33.57;99400.80;103287;1286;62191;-78
2024/01/19 00:55:00;;;;;;;11.70;9.20;;;;;;;19.89;33.63;99397.81;103451;1288;62279;-79
2024/01/19 00:57:26;;;;;;;12.50;9.30;;;;;;;19.88;33.49;99404.63;103375;1282;62276;-78
2024/01/19 00:59:52;;;;;;;12.50;9.40;;;;;;;19.89;33.45;99406.94;103339;1288;62136;-78
2024/01/19 01:02:17;;;;;;;12.80;9.20;;;;;;;19.90;33.56;99416.98;103458;1282;62684;-78
2024/01/19 01:04:43;;;;;;;14.00;9.30;;;;;;;19.91;33.54;99421.34;103429;1288;62219;-79
2024/01/19 01:07:09;;;;;;;12.70;9.50;;;;;;;19.92;33.49;99421.22;103508;1283;62518;-81
2024/01/19 01:09:35;;;;;;;14.20;9.90;;;;;;;19.94;33.40;99421.98;103501;1282;62198;-79
2024/01/19 01:12:02;;;;;;;13.10;9.50;;;;;;;19.97;33.34;99418.56;103556;1282;62130;-79
2024/01/19 01:14:28;;;;;;;13.30;9.70;;;;;;;19.99;33.20;99417.50;103619;1283;62674;-78
2024/01/19 01:16:53;;;;;;;14.30;10.10;;;;;;;20.01;33.30;99409.05;103385;1282;62271;-79
2024/01/19 01:19:19;;;;;;;13.40;9.70;;;;;;;20.04;33.25;99409.69;103482;1283;62216;-79
2024/01/19 01:21:45;;;;;;;13.40;9.60;;;;;;;20.06;33.09;99413.11;103253;1282;84022;-78
2024/01/19 01:24:10;;;;;;;12.50;9.70;;;;;;;20.09;32.95;99412.52;103593;1283;62156;-78
2024/01/19 01:26:36;;;;;;;11.80;8.90;;;;;;;20.11;33.07;99418.55;103380;1288;62536;-79
2024/01/19 01:29:02;;;;;;;12.50;9.70;;;;;;;20.13;32.93;99423.00;103413;1288;62722;-79
2024/01/19 01:31:27;;;;;;;14.60;10.10;;;;;;;20.15;32.81;99421.22;103595;1282;62198;-79
2024/01/19 01:33:53;;;;;;;12.00;9.50;;;;;;;20.17;32.86;99424.45;103567;1283;63430;-79
2024/01/19 01:36:19;;;;;;;12.00;8.80;;;;;;;20.19;32.72;99423.06;103389;1288;62245;-79
2024/01/19 01:38:45;;;;;;;12.00;9.20;;;;;;;20.20;32.69;99423.42;103122;1285;62206;-79
2024/01/19 01:41:10;;;;;;;12.20;9.80;;;;;;;20.22;32.82;99424.67;103217;1291;62719;-78
2024/01/19 01:43:36;;;;;;;12.70;9.70;;;;;;;20.24;32.63;99422.00;103213;1285;63028;-78
2024/01/19 01:46:02;;;;;;;12.30;9.40;;;;;;;20.26;32.73;99420.59;103116;1286;62237;-78
2024/01/19 01:48:28;;;;;;;10.70;8.60;;;;;;;20.28;32.67;99417.27;103195;1286;62257;-78
2024/01/19 01:50:54;;;;;;;11.80;9.60;;;;;;;20.29;32.58;99417.16;103325;1286;63494;-78
2024/01/19 01:53:20;;;;;;;13.50;9.70;;;;;;;20.30;32.57;99407.91;103233;1286;62204;-80
2024/01/19 01:55:47;;;;;;;12.70;9.30;;;;;;;20.31;32.61;99403.19;103181;1287;74371;-79
2024/01/19 01:58:13;;;;;;;11.90;9.60;;;;;;;20.33;32.44;99406.80;103199;1285;62047;-79
2024/01/19 02:00:39;;;;;;;11.60;9.20;;;;;;;20.34;32.54;99403.98;103303;1285;62242;-78
2024/01/19 02:03:05;;;;;;;12.20;9.00;;;;;;;20.36;32.49;99409.04;103168;1285;62369;-79
2024/01/19 02:05:30;;;;;;;11.50;9.30;;;;;;;20.36;32.53;99410.05;103136;1285;62366;-79
2024/01/19 02:07:56;;;;;;;12.90;9.50;;;;;;;20.38;32.46;99412.40;103321;1285;62254;-79
2024/01/19 02:10:21;;;;;;;12.40;9.60;;;;;;;20.39;32.31;99406.61;103387;1288;62196;-78
2024/01/19 02:12:47;;;;;;;13.70;9.70;;;;;;;20.39;32.24;99406.92;103516;1282;62274;-79
2024/01/19 02:15:20;;;;;;;12.40;9.80;;;;;;;20.40;32.26;99411.64;103369;1288;71586;-80
2024/01/19 02:17:48;;;;;;;12.00;9.50;;;;;;;20.41;32.35;99416.27;103412;1282;75286;-79
2024/01/19 02:20:14;;;;;;;12.90;9.50;;;;;;;20.41;32.15;99423.71;103235;1290;62192;-80
2024/01/19 02:22:40;;;;;;;14.00;9.60;;;;;;;20.42;32.18;99432.77;103513;1282;62400;-80
2024/01/19 02:25:06;;;;;;;12.90;9.70;;;;;;;20.43;32.16;99439.30;103574;1282;63364;-79
2024/01/19 02:27:32;;;;;;;12.40;9.60;;;;;;;20.44;32.23;99437.61;103351;1282;62354;-80
2024/01/19 02:29:58;;;;;;;15.00;9.80;;;;;;;20.45;32.21;99435.75;103354;1282;63874;-80
2024/01/19 02:32:24;;;;;;;12.20;9.00;;;;;;;20.46;32.13;99437.27;103393;1282;62689;-79
2024/01/19 02:34:49;;;;;;;13.60;9.50;;;;;;;20.46;32.02;99436.17;103334;1282;62514;-78
2024/01/19 02:37:15;;;;;;;12.60;9.80;;;;;;;20.46;32.14;99447.61;103411;1282;72598;-79
2024/01/19 02:39:41;;;;;;;12.20;9.70;;;;;;;20.48;32.05;99450.67;103524;1288;63314;-79
2024/01/19 02:42:09;;;;;;;13.00;10.10;;;;;;;20.48;32.10;99449.05;103592;1282;63388;-79
2024/01/19 02:44:35;;;;;;;13.60;9.80;;;;;;;20.48;31.90;99449.55;103481;1282;62091;-78
2024/01/19 02:47:01;;;;;;;13.60;10.00;;;;;;;20.48;31.90;99452.20;103258;1283;62263;-79
2024/01/19 02:49:26;;;;;;;12.10;9.70;;;;;;;20.49;31.88;99449.64;103552;1282;62491;-78
2024/01/19 02:51:52;;;;;;;12.80;9.80;;;;;;;20.50;31.97;99450.32;103262;1282;62247;-79
2024/01/19 02:54:18;;;;;;;13.60;10.00;;;;;;;20.50;31.91;99445.99;103499;1288;62182;-78
2024/01/19 02:56:44;;;;;;;13.80;9.90;;;;;;;20.50;31.84;99451.70;103422;1282;62242;-79
2024/01/19 02:59:10;;;;;;;16.20;10.40;;;;;;;20.51;31.86;99457.16;103553;1288;73470;-79
2024/01/19 03:01:36;;;;;;;13.20;10.40;;;;;;;20.51;31.72;99459.46;103413;1286;75324;-79
2024/01/19 03:04:03;;;;;;;12.80;10.30;;;;;;;20.52;31.76;99459.21;103347;1286;62143;-79
2024/01/19 03:06:28;;;;;;;15.20;11.00;;;;;;;20.53;31.69;99458.81;103354;1285;62124;-78
2024/01/19 03:08:54;;;;;;;12.70;10.00;;;;;;;20.52;31.65;99460.23;103202;1291;62491;-78
2024/01/19 03:11:20;;;;;;;13.60;10.70;;;;;;;20.53;31.69;99457.32;103206;1285;62631;-79
2024/01/19 03:13:46;;;;;;;12.80;10.80;;;;;;;20.53;31.58;99458.02;103299;1285;62111;-79
2024/01/19 03:16:11;;;;;;;13.70;10.10;;;;;;;20.53;31.59;99458.52;103498;1289;62247;-79
2024/01/19 03:18:37;;;;;;;13.10;10.60;;;;;;;20.54;31.63;99456.52;103244;1286;62197;-79
2024/01/19 03:21:03;;;;;;;14.60;10.70;;;;;;;20.54;31.55;99460.80;103262;1286;63265;-79
2024/01/19 03:23:29;;;;;;;15.00;10.70;;;;;;;20.55;31.38;99467.37;103304;1285;62144;-79
2024/01/19 03:25:55;;;;;;;13.50;9.90;;;;;;;20.55;31.50;99471.12;103221;1291;62181;-79
2024/01/19 03:28:21;;;;;;;14.30;11.10;;;;;;;20.55;31.36;99473.61;103167;1285;62200;-79
2024/01/19 03:30:46;;;;;;;13.50;10.70;;;;;;;20.55;31.37;99480.73;103310;1291;62754;-78
2024/01/19 03:33:12;;;;;;;13.70;10.60;;;;;;;20.56;31.43;99483.20;103195;1285;63515;-79
2024/01/19 03:35:38;;;;;;;13.60;10.20;;;;;;;20.56;31.33;99479.80;103380;1284;76150;-79
2024/01/19 03:38:04;;;;;;;14.80;10.80;;;;;;;20.56;31.45;99484.98;103391;1283;62197;-78
2024/01/19 03:40:30;;;;;;;15.40;11.30;;;;;;;20.56;31.37;99496.55;103214;1285;62203;-79
2024/01/19 03:42:55;;;;;;;14.40;10.80;;;;;;;20.56;31.49;99498.66;103435;1289;63245;-79
2024/01/19 03:45:21;;;;;;;15.00;10.50;;;;;;;20.57;31.37;99491.34;103309;1289;62138;-80
2024/01/19 03:47:47;;;;;;;15.20;11.10;;;;;;;20.57;31.39;99496.12;103340;1285;62160;-79
2024/01/19 03:50:13;;;;;;;13.70;11.10;;;;;;;20.57;31.32;99497.58;103382;1286;62689;-77
2024/01/19 03:52:38;;;;;;;15.70;11.30;;;;;;;20.57;31.31;99499.88;103428;1286;62257;-78
2024/01/19 03:55:05;;;;;;;14.50;11.40;;;;;;;20.57;31.27;99505.57;103323;1290;62505;-79
2024/01/19 03:57:31;;;;;;;16.30;11.60;;;;;;;20.57;31.26;99507.70;103383;1288;63452;-78
2024/01/19 03:59:56;;;;;;;13.80;10.50;;;;;;;20.58;31.25;99510.16;103476;1284;63242;-78
2024/01/19 04:02:22;;;;;;;14.70;10.40;;;;;;;20.58;31.13;99508.89;103418;1288;62129;-79
2024/01/19 04:04:48;;;;;;;14.80;11.10;;;;;;;20.58;31.21;99508.16;103642;1285;62289;-79
2024/01/19 04:07:14;;;;;;;16.30;11.80;;;;;;;20.58;31.33;99513.33;103435;1288;72626;-79
2024/01/19 04:09:41;;;;;;;15.10;11.30;;;;;;;20.58;31.27;99514.25;103457;1283;63636;-79
2024/01/19 04:12:17;;;;;;;16.40;10.70;;;;;;;20.58;31.19;99522.27;103573;1282;62191;-78
2024/01/19 04:14:44;;;;;;;15.20;11.40;;;;;;;20.58;31.19;99527.69;103459;1283;62196;-78
2024/01/19 04:17:10;;;;;;;13.70;11.20;;;;;;;20.58;30.98;99531.02;103420;1288;72484;-78
2024/01/19 04:19:36;;;;;;;14.80;11.50;;;;;;;20.57;30.99;99529.83;103401;1283;62172;-79
2024/01/19 04:22:02;;;;;;;16.90;11.30;;;;;;;20.59;31.00;99534.05;103334;1291;63270;-79
2024/01/19 04:24:28;;;;;;;14.10;11.20;;;;;;;20.59;31.05;99525.27;103910;1282;62197;-78
2024/01/19 04:26:53;;;;;;;14.20;11.00;;;;;;;20.59;30.95;99534.21;103468;1287;62292;-80
2024/01/19 04:29:19;;;;;;;14.40;11.10;;;;;;;20.58;31.06;99535.27;103560;1283;62675;-79
2024/01/19 04:31:45;;;;;;;13.90;11.10;;;;;;;20.59;31.03;99542.05;103480;1283;63387;-78
2024/01/19 04:34:11;;;;;;;15.60;11.10;;;;;;;20.59;31.05;99543.61;103525;1282;62254;-79
2024/01/19 04:36:37;;;;;;;17.00;12.20;;;;;;;20.59;30.91;99543.64;103376;1285;62226;-80
2024/01/19 04:39:04;;;;;;;15.50;12.20;;;;;;;20.59;30.97;99545.47;103473;1283;62661;-79
2024/01/19 04:41:31;;;;;;;17.30;13.20;;;;;;;20.58;30.91;99552.30;103473;1288;63378;-81
2024/01/19 04:43:57;;;;;;;17.10;11.90;;;;;;;20.57;30.85;99554.15;103413;1283;62075;-80
2024/01/19 04:46:22;;;;;;;18.20;12.80;;;;;;;20.57;30.83;99555.66;103452;1286;62261;-80
2024/01/19 04:48:49;;;;;;;15.60;12.40;;;;;;;20.56;30.81;99558.05;103473;1283;62212;-80
2024/01/19 04:51:15;;;;;;;15.70;12.40;;;;;;;20.55;30.73;99551.86;103534;1288;62270;-79
2024/01/19 04:53:40;;;;;;;15.50;12.00;;;;;;;20.54;30.77;99553.19;103464;1283;62599;-80
2024/01/19 04:56:07;;;;;;;16.40;13.10;;;;;;;20.54;30.68;99556.23;103414;1289;62367;-79
2024/01/19 04:58:36;;;;;;;17.50;13.20;;;;;;;20.54;30.76;99558.75;103498;1282;62193;-81
2024/01/19 05:01:03;;;;;;;17.70;13.60;;;;;;;20.54;30.68;99565.02;103453;1288;63441;-80
2024/01/19 05:03:31;;;;;;;17.10;13.60;;;;;;;20.54;30.67;99566.48;103618;1283;62108;-80
2024/01/19 05:05:57;;;;;;;16.70;12.90;;;;;;;20.53;30.72;99569.21;103681;1285;62203;-81
2024/01/19 05:08:23;;;;;;;16.70;13.70;;;;;;;20.52;30.64;99573.39;103589;1283;62235;-78
2024/01/19 05:10:48;;;;;;;18.00;13.70;;;;;;;20.52;30.56;99580.21;103642;1286;63083;-79
2024/01/19 05:13:14;;;;;;;18.90;14.30;;;;;;;20.52;30.62;99588.09;103854;1283;62160;-80
2024/01/19 05:15:41;;;;;;;16.90;14.00;;;;;;;20.52;30.63;99596.11;104035;1285;62193;-80
2024/01/19 05:18:07;;;;;;;17.40;13.20;;;;;;;20.52;30.56;99597.20;104027;1282;62532;-79
2024/01/19 05:20:33;;;;;;;16.50;13.30;;;;;;;20.52;30.46;99595.77;104109;1287;62106;-80
2024/01/19 05:22:58;;;;;;;17.60;13.90;;;;;;;20.52;30.65;99598.27;103891;1285;62264;-80
2024/01/19 05:25:24;;;;;;;17.40;13.40;;;;;;;20.51;30.47;99606.91;103696;1285;63668;-80
2024/01/19 05:27:53;;;;;;;17.10;14.10;;;;;;;20.51;30.58;99618.52;103606;1288;62200;-80
2024/01/19 05:30:20;;;;;;;17.20;14.10;;;;;;;20.51;30.56;99622.29;103943;1282;72506;-80
2024/01/19 05:32:46;;;;;;;18.00;13.50;;;;;;;20.51;30.48;99618.73;103609;1283;63247;-79
2024/01/19 05:35:12;;;;;;;17.70;13.30;;;;;;;20.50;30.58;99625.04;103904;1285;62255;-80
2024/01/19 05:37:37;;;;;;;17.00;13.10;;;;;;;20.49;30.61;99623.89;103567;1283;62903;-79
2024/01/19 05:40:04;;;;;;;18.90;15.10;;;;;;;20.47;30.61;99624.44;103348;1283;63436;-79
2024/01/19 05:42:29;;;;;;;22.00;16.50;;;;;;;20.44;30.45;99628.24;103587;1289;62198;-78
2024/01/19 05:44:55;;;;;;;22.70;17.50;;;;;;;20.41;30.43;99632.23;103765;1283;62280;-80
2024/01/19 05:47:21;;;;;;;24.20;18.00;;;;;;;20.38;30.38;99640.42;104281;1285;62174;-79
2024/01/19 05:49:47;;;;;;;26.70;18.20;;;;;;;20.33;30.39;99642.23;104166;1285;62207;-81
2024/01/19 05:52:12;;;;;;;22.40;17.20;;;;;;;20.29;30.32;99639.41;103774;1282;62335;-82
2024/01/19 05:54:38;;;;;;;23.50;17.10;;;;;;;20.25;30.36;99647.77;104545;1285;62263;-79
2024/01/19 05:57:04;;;;;;;30.80;19.00;;;;;;;20.22;30.47;99649.05;105057;1283;61953;-79
2024/01/19 05:59:30;;;;;;;26.30;19.20;;;;;;;20.19;30.49;99650.23;104886;1283;62161;-79
2024/01/19 06:01:56;;;;;;;26.00;19.90;;;;;;;20.17;30.56;99651.98;104967;1285;62047;-80
2024/01/19 06:04:22;;;;;;;28.80;20.50;;;;;;;20.16;30.67;99661.03;105378;1285;62075;-80
2024/01/19 06:06:48;;;;;;;30.20;21.00;;;;;;;20.13;30.57;99663.05;105152;1286;75109;-80
2024/01/19 06:09:13;;;;;;;30.20;21.30;;;;;;;20.11;30.73;99670.87;105074;1283;62123;-80
2024/01/19 06:11:39;;;;;;;30.80;21.40;;;;;;;20.11;30.67;99677.55;105539;1282;61954;-79
2024/01/19 06:14:04;;;;;;;25.70;21.50;;;;;;;20.09;30.54;99680.36;105236;1285;62102;-78
2024/01/19 06:16:31;;;;;;;29.30;20.80;;;;;;;20.09;30.55;99680.38;105405;1283;64331;-79
2024/01/19 06:18:58;;;;;;;27.90;21.30;;;;;;;20.10;30.49;99683.71;105321;1288;60174;-78
2024/01/19 06:21:24;;;;;;;27.00;20.80;;;;;;;20.10;30.58;99679.03;105206;1283;62067;-80
2024/01/19 06:23:50;;;;;;;30.30;20.00;;;;;;;20.11;30.53;99682.02;105499;1280;62111;-78
2024/01/19 06:26:16;;;;;;;27.00;19.50;;;;;;;20.13;30.48;99682.70;105438;1283;62190;-79
2024/01/19 06:28:42;;;;;;;30.40;19.20;;;;;;;20.17;30.59;99687.58;105098;1282;62023;-78
2024/01/19 06:31:10;;;;;;;30.90;18.40;;;;;;;20.21;30.60;99688.17;105544;1283;62418;-78
2024/01/19 06:33:40;;;;;;;41.80;17.80;;;;;;;20.26;30.63;99695.19;105235;1283;62173;-80
2024/01/19 06:36:09;;;;;;;31.40;16.60;;;;;;;20.30;30.83;99705.10;105466;1285;72677;-79
2024/01/19 06:38:35;;;;;;;33.10;17.30;;;;;;;20.34;30.84;99714.02;105604;1283;75465;-78
2024/01/19 06:41:01;;;;;;;24.00;15.90;;;;;;;20.37;30.94;99721.23;105201;1283;62244;-78
2024/01/19 06:43:26;;;;;;;30.80;17.00;;;;;;;20.41;31.04;99728.79;105088;1286;62235;-78
2024/01/19 06:45:52;;;;;;;33.30;15.90;;;;;;;20.44;31.19;99729.03;105237;1284;62094;-79
2024/01/19 06:48:18;;;;;;;23.80;14.80;;;;;;;20.47;31.29;99731.83;105136;1283;62197;-79
2024/01/19 06:50:43;;;;;;;28.80;14.60;;;;;;;20.50;31.56;99731.21;105224;1280;62193;-79
2024/01/19 06:53:09;;;;;;;33.80;14.60;;;;;;;20.52;31.69;99730.86;105277;1280;62190;-80
2024/01/19 06:55:35;;;;;;;25.10;15.30;;;;;;;20.55;31.76;99735.28;105633;1282;62140;-79
2024/01/19 06:58:01;;;;;;;29.20;16.10;;;;;;;20.55;32.41;99737.04;105419;1285;62141;-79
2024/01/19 07:00:29;;;;;;;38.80;17.20;;;;;;;20.53;32.80;99738.10;105683;1282;76297;-78
2024/01/19 07:02:55;;;;;;;32.40;19.10;;;;;;;20.51;33.08;99738.98;105425;1286;61257;-79
2024/01/19 07:05:20;;;;;;;30.70;20.30;;;;;;;20.48;33.20;99739.81;105834;1282;62107;-80
2024/01/19 07:07:46;;;;;;;39.80;22.40;;;;;;;20.44;33.07;99738.31;105603;1283;59901;-80
2024/01/19 07:10:11;;;;;;;36.70;22.30;;;;;;;20.42;33.11;99732.09;105612;1282;62188;-79
2024/01/19 07:12:37;;;;;;;31.70;22.00;;;;;;;20.39;33.15;99727.86;105893;1282;62159;-79
2024/01/19 07:15:06;;;;;;;28.90;21.90;;;;;;;20.36;33.01;99735.09;105974;1283;60473;-79
2024/01/19 07:17:32;;;;;;;37.40;23.10;;;;;;;20.34;32.98;99741.65;106058;1283;61864;-78
2024/01/19 07:19:59;;;;;;;37.80;24.50;;;;;;;20.33;32.95;99745.56;105777;1286;62261;-79
2024/01/19 07:22:27;;;;;;;36.10;24.00;;;;;;;20.31;32.84;99752.65;105369;1282;75280;-80
2024/01/19 07:24:53;;;;;;;39.70;23.50;;;;;;;20.32;32.99;99756.88;105120;1280;62137;-78
2024/01/19 07:27:19;;;;;;;36.60;22.60;;;;;;;20.34;32.73;99755.67;105204;1283;62057;-78
2024/01/19 07:29:44;;;;;;;32.00;20.80;;;;;;;20.35;32.85;99751.60;105112;1286;62081;-80
2024/01/19 07:32:10;;;;;;;35.80;20.80;;;;;;;20.37;32.99;99753.19;104868;1282;62183;-80
2024/01/19 07:34:36;;;;;;;31.80;20.50;;;;;;;20.39;33.05;99750.41;104964;1286;59955;-82
2024/01/19 07:37:02;;;;;;;31.80;21.90;;;;;;;20.40;33.08;99757.30;105513;1283;62177;-77
2024/01/19 07:39:28;;;;;;;38.40;21.90;;;;;;;20.40;33.04;99755.64;104389;1283;721375;-79
2024/01/19 07:41:54;;;;;;;31.00;21.10;;;;;;;20.41;33.17;99757.73;104928;1282;59508;-78
2024/01/19 07:44:20;;;;;;;31.80;19.00;;;;;;;20.42;33.20;99759.58;105097;1286;62088;-80
2024/01/19 07:46:45;;;;;;;29.00;19.60;;;;;;;20.43;33.26;99759.87;105192;1282;62133;-80
2024/01/19 07:49:11;;;;;;;31.20;19.20;;;;;;;20.43;33.39;99760.80;105544;1283;60074;-79
2024/01/19 07:51:37;;;;;;;39.80;21.40;;;;;;;20.41;33.63;99761.95;105517;1282;61982;-79
2024/01/19 07:54:03;;;;;;;42.50;20.80;;;;;;;20.41;33.80;99758.63;105449;1281;62375;-79
2024/01/19 07:56:29;;;;;;;36.60;21.60;;;;;;;20.41;34.10;99762.05;105455;1282;61940;-79
2024/01/19 07:58:55;;;;;;;41.60;20.50;;;;;;;20.39;34.32;99769.88;105367;1283;62178;-78
2024/01/19 08:01:21;;;;;;;29.60;19.20;;;;;;;20.38;34.86;99772.48;105162;1282;62104;-79
2024/01/19 08:03:47;;;;;;;37.90;20.70;;;;;;;20.36;35.13;99777.79;105095;1288;60263;-78
2024/01/19 08:06:13;;;;;;;45.10;22.60;;;;;;;20.34;35.22;99777.10;105074;1283;63616;-79
2024/01/19 08:08:39;;;;;;;35.90;22.30;;;;;;;20.32;35.06;99776.02;105226;1283;62156;-79
2024/01/19 08:11:04;;;;;;;39.70;23.80;;;;;;;20.31;35.14;99769.99;105590;1282;64122;-79
2024/01/19 08:13:30;;;;;;;32.10;22.80;;;;;;;20.30;34.74;99765.08;105446;1282;61999;-78
2024/01/19 08:15:56;;;;;;;35.00;21.80;;;;;;;20.30;34.60;99767.77;105337;1284;72565;-78
2024/01/19 08:18:22;;;;;;;31.80;21.00;;;;;;;20.32;34.59;99763.70;105516;1283;62185;-80
2024/01/19 08:20:47;;;;;;;30.50;21.80;;;;;;;20.34;34.63;99763.15;105164;1286;62510;-78
2024/01/19 08:23:13;;;;;;;32.40;22.10;;;;;;;20.36;34.50;99763.14;105478;1285;62222;-78
2024/01/19 08:25:39;;;;;;;28.90;21.20;;;;;;;20.38;34.32;99763.00;105222;1283;62178;-77
2024/01/19 08:28:05;;;;;;;29.50;21.70;;;;;;;20.40;34.34;99770.88;105092;1283;60290;-78
2024/01/19 08:30:30;;;;;;;27.00;20.40;;;;;;;20.40;34.11;99766.70;105655;1283;76232;-78
2024/01/19 08:32:59;;;;;;;29.30;21.10;;;;;;;20.43;34.05;99769.88;105668;1283;62174;-79
2024/01/19 08:35:25;;;;;;;31.00;21.60;;;;;;;20.44;33.91;99772.84;105216;1285;62300;-80
2024/01/19 08:37:51;;;;;;;33.40;20.80;;;;;;;20.43;33.83;99771.48;105513;1283;62068;-79
2024/01/19 08:40:16;;;;;;;31.70;21.60;;;;;;;20.42;34.13;99769.77;104724;1286;62102;-78
2024/01/19 08:42:42;;;;;;;37.60;23.60;;;;;;;20.39;34.10;99767.91;105021;1282;62651;-77
2024/01/19 08:45:08;;;;;;;32.80;22.10;;;;;;;20.36;34.29;99773.19;105262;1283;62123;-77
2024/01/19 08:47:33;;;;;;;32.80;23.30;;;;;;;20.32;34.48;99771.90;104653;1282;62176;-77
2024/01/19 08:49:59;;;;;;;30.20;22.90;;;;;;;20.29;34.71;99780.93;104402;1282;71169;-78
2024/01/19 08:52:29;;;;;;;30.00;23.30;;;;;;;20.25;34.97;99787.98;105346;1282;62087;-78
2024/01/19 08:54:54;;;;;;;36.50;24.10;;;;;;;20.21;35.28;99785.30;105171;1282;62725;-78
2024/01/19 08:57:20;;;;;;;37.10;23.80;;;;;;;20.17;35.44;99782.13;105221;1283;62070;-78
2024/01/19 08:59:45;;;;;;;41.00;24.30;;;;;;;20.11;35.44;99775.42;105373;1287;60752;-79
2024/01/19 09:02:11;;;;;;;32.60;21.80;;;;;;;20.05;35.67;99767.70;105432;1288;60563;-79
2024/01/19 09:04:38;;;;;;;32.70;21.10;;;;;;;20.00;35.57;99762.39;105761;1282;60261;-79
2024/01/19 09:07:05;;;;;;;37.10;23.60;;;;;;;19.98;35.73;99761.01;105897;1282;61406;-80
2024/01/19 09:09:30;;;;;;;32.80;22.60;;;;;;;19.96;35.73;99765.08;105547;1288;59966;-80
2024/01/19 09:11:57;;;;;;;41.70;22.70;;;;;;;19.93;36.19;99773.13;105189;1283;62148;-81
2024/01/19 09:14:23;;;;;;;35.70;23.50;;;;;;;19.92;36.24;99774.15;105748;1283;62152;-81
2024/01/19 09:16:49;;;;;;;40.40;24.40;;;;;;;19.90;36.39;99778.39;105672;1288;62081;-78
2024/01/19 09:19:15;;;;;;;30.00;23.00;;;;;;;19.88;36.37;99776.38;105886;1285;64544;-79
2024/01/19 09:21:44;;;;;;;31.80;22.40;;;;;;;19.86;36.38;99780.30;105406;1283;62152;-79
2024/01/19 09:24:12;;;;;;;30.30;22.90;;;;;;;19.85;36.42;99779.91;106791;1282;75706;-79
2024/01/19 09:26:38;;;;;;;30.50;23.00;;;;;;;19.83;36.30;99773.30;106929;1280;60351;-78
2024/01/19 09:29:04;;;;;;;26.40;21.70;;;;;;;19.81;36.28;99770.04;106744;1288;59951;-80
2024/01/19 09:31:30;;;;;;;29.20;21.60;;;;;;;19.79;36.15;99771.41;106891;1281;60251;-78
2024/01/19 09:33:56;;;;;;;28.50;20.80;;;;;;;19.78;35.96;99776.70;105705;1283;62188;-79
2024/01/19 09:36:21;;;;;;;27.50;21.00;;;;;;;19.75;35.85;99772.75;105137;1282;62120;-78
2024/01/19 09:38:47;;;;;;;26.90;20.20;;;;;;;19.73;35.63;99772.80;105087;1283;62193;-79
2024/01/19 09:41:34;;;;;;;29.40;22.70;;;;;;;19.70;35.55;99770.73;105402;1283;62069;-80
2024/01/19 09:44:02;;;;;;;32.00;21.30;;;;;;;19.67;35.45;99774.89;105727;1283;72388;-80
2024/01/19 09:46:28;;;;;;;29.50;20.30;;;;;;;19.65;35.38;99777.55;106204;1286;60232;-80
2024/01/19 09:49:36;;;;;;;23.90;18.30;;;;;;;19.64;35.20;99780.66;105201;1283;61382;-79
2024/01/19 09:52:03;;;;;;;30.80;21.40;;;;;;;19.59;35.05;99774.08;105144;1288;61019;-79
2024/01/19 09:54:35;;;;;;;36.60;20.90;;;;;;;19.53;35.07;99773.52;104964;1292;60976;-80
2024/01/19 09:57:01;;;;;;;38.20;21.30;;;;;;;19.45;35.35;99771.48;105189;1288;76173;-81
2024/01/19 09:59:30;;;;;;;38.80;21.20;;;;;;;19.44;35.78;99771.40;104956;1289;62118;-80
2024/01/19 10:01:56;;;;;;;34.40;21.50;;;;;;;19.50;36.12;99769.27;104647;1294;62041;-80
2024/01/19 10:04:22;;;;;;;35.60;20.70;;;;;;;19.55;36.30;99767.87;105033;1289;62829;-80
2024/01/19 10:06:47;;;;;;;35.10;21.30;;;;;;;19.59;36.63;99770.19;105233;1292;62128;-81
2024/01/19 10:09:14;;;;;;;35.00;22.50;;;;;;;19.62;37.00;99770.81;105171;1292;60370;-80
2024/01/19 10:11:40;;;;;;;31.70;22.20;;;;;;;19.63;37.26;99771.66;105359;1292;60605;-83
2024/01/19 10:14:06;;;;;;;32.60;20.90;;;;;;;19.58;36.94;99769.56;105261;1288;61042;-80
2024/01/19 10:16:33;;;;;;;27.40;19.80;;;;;;;19.54;36.96;99776.98;105217;1292;62298;-80
2024/01/19 10:19:01;;;;;;;32.70;19.40;;;;;;;19.54;37.02;99775.58;104977;1289;61546;-79
2024/01/19 10:21:28;;;;;;;34.50;20.60;;;;;;;19.54;36.74;99768.58;105177;1289;61529;-80
2024/01/19 10:24:10;;;;;;;26.00;19.90;;;;;;;19.55;36.66;99764.44;105113;1290;62268;-79
2024/01/19 10:26:41;;;;;;;35.90;20.90;;;;;;;19.54;36.64;99769.46;104820;1294;75195;-79
2024/01/19 10:29:14;;;;;;;26.90;18.80;;;;;;;19.54;36.62;99764.73;105694;1280;62143;-79
2024/01/19 10:31:44;;;;;;;31.60;20.20;;;;;;;19.54;36.68;99759.36;105647;1283;62021;-79
2024/01/19 10:34:18;;;;;;;30.90;20.30;;;;;;;19.54;36.51;99761.31;105451;1281;72522;-78
2024/01/19 10:36:44;;;;;;;26.30;18.90;;;;;;;19.51;36.51;99762.21;105799;1282;76261;-81
2024/01/19 10:39:20;;;;;;;28.10;18.90;;;;;;;19.52;36.50;99766.67;105253;1283;62197;-80
2024/01/19 10:41:47;;;;;;;29.20;18.80;;;;;;;19.52;36.54;99767.16;105581;1280;60960;-81
2024/01/19 10:44:15;;;;;;;28.30;19.90;;;;;;;19.53;36.49;99763.37;105777;1283;62097;-78
2024/01/19 10:46:40;;;;;;;31.60;19.60;;;;;;;19.53;36.60;99759.94;105186;1283;76454;-80
2024/01/19 10:49:07;;;;;;;30.10;19.60;;;;;;;19.53;36.52;99760.52;105136;1282;62037;-78
2024/01/19 10:51:44;;;;;;;36.70;18.90;;;;;;;19.50;36.51;99755.56;105058;1289;61993;-80
2024/01/19 10:54:15;;;;;;;35.00;16.80;;;;;;;19.50;36.79;99759.27;105220;1283;72515;-80
2024/01/19 10:56:44;;;;;;;27.40;17.00;;;;;;;19.55;37.28;99763.55;106102;1282;75803;-80
2024/01/19 10:59:13;;;;;;;26.50;18.20;;;;;;;19.58;37.57;99766.66;104972;1283;60861;-79
2024/01/19 11:01:39;;;;;;;25.40;18.00;;;;;;;19.60;37.98;99767.43;105695;1285;61970;-81
2024/01/19 11:04:06;;;;;;;31.70;18.60;;;;;;;19.59;37.92;99767.48;105730;1282;62202;-78
2024/01/19 11:06:36;;;;;;;36.00;19.20;;;;;;;19.50;37.71;99766.80;105682;1282;73484;-79
2024/01/19 11:09:03;;;;;;;27.70;18.70;;;;;;;19.33;37.50;99767.44;105369;1283;62006;-79